Terminal Aerodrome Forecast
Issued by NWS Mt. Holly, NJ

Home | Current Version | Previous Version | Text Only | Print | Product List | Glossary On
Versions: 1 2 3 4 5 6 7 8 9 10 11 12
950
FTUS41 KPHI 281723
TAFACY
TAF
KACY 281723Z 2818/2918 29009KT P6SM FEW080
     FM282100 19007KT P6SM FEW080
     FM291100 22011KT P6SM FEW250=

USA.gov is the U.S. government's official web portal to all federal, state and local government web resources and services.